sensor_id;sensor_type;location;lat;lon;timestamp;temperature;humidity
18794;DHT22;29610;49.022;12.114;2022-08-20T00:02:25;16.90;99.90
18794;DHT22;29610;49.022;12.114;2022-08-20T00:04:53;16.90;99.90
18794;DHT22;29610;49.022;12.114;2022-08-20T00:07:22;16.90;99.90
18794;DHT22;29610;49.022;12.114;2022-08-20T00:09:51;16.90;99.90
18794;DHT22;29610;49.022;12.114;2022-08-20T00:12:20;16.90;99.90
18794;DHT22;29610;49.022;12.114;2022-08-20T00:14:49;16.90;99.90
18794;DHT22;29610;49.022;12.114;2022-08-20T00:17:17;16.80;99.90
18794;DHT22;29610;49.022;12.114;2022-08-20T00:19:46;16.80;99.90
18794;DHT22;29610;49.022;12.114;2022-08-20T00:22:14;16.90;99.90
18794;DHT22;29610;49.022;12.114;2022-08-20T00:24:43;16.80;99.90
18794;DHT22;29610;49.022;12.114;2022-08-20T00:27:13;16.80;99.90
18794;DHT22;29610;49.022;12.114;2022-08-20T00:29:41;16.80;99.90
18794;DHT22;29610;49.022;12.114;2022-08-20T00:32:09;16.70;99.90
18794;DHT22;29610;49.022;12.114;2022-08-20T00:34:38;16.70;99.90
18794;DHT22;29610;49.022;12.114;2022-08-20T00:37:08;16.70;99.90
18794;DHT22;29610;49.022;12.114;2022-08-20T00:39:36;16.70;99.90
18794;DHT22;29610;49.022;12.114;2022-08-20T00:42:06;16.60;99.90
18794;DHT22;29610;49.022;12.114;2022-08-20T00:44:44;16.60;99.90
18794;DHT22;29610;49.022;12.114;2022-08-20T00:47:13;16.60;99.90
18794;DHT22;29610;49.022;12.114;2022-08-20T00:49:41;16.60;99.90
18794;DHT22;29610;49.022;12.114;2022-08-20T00:52:15;16.60;99.90
18794;DHT22;29610;49.022;12.114;2022-08-20T00:54:50;16.60;99.90
18794;DHT22;29610;49.022;12.114;2022-08-20T00:57:30;16.60;99.90
18794;DHT22;29610;49.022;12.114;2022-08-20T01:00:25;16.50;99.90
18794;DHT22;29610;49.022;12.114;2022-08-20T01:02:57;16.50;99.90
18794;DHT22;29610;49.022;12.114;2022-08-20T01:05:26;16.50;99.90
18794;DHT22;29610;49.022;12.114;2022-08-20T01:07:56;16.50;99.90
18794;DHT22;29610;49.022;12.114;2022-08-20T01:10:28;16.50;99.90
18794;DHT22;29610;49.022;12.114;2022-08-20T01:13:05;16.50;99.90
18794;DHT22;29610;49.022;12.114;2022-08-20T01:15:41;16.50;99.90
18794;DHT22;29610;49.022;12.114;2022-08-20T01:18:16;16.50;99.90
18794;DHT22;29610;49.022;12.114;2022-08-20T01:20:53;16.50;99.90
18794;DHT22;29610;49.022;12.114;2022-08-20T01:23:31;16.50;99.90
18794;DHT22;29610;49.022;12.114;2022-08-20T01:26:22;16.50;99.90
18794;DHT22;29610;49.022;12.114;2022-08-20T01:28:58;16.50;99.90
18794;DHT22;29610;49.022;12.114;2022-08-20T01:31:30;16.50;99.90
18794;DHT22;29610;49.022;12.114;2022-08-20T01:34:06;16.40;99.90
18794;DHT22;29610;49.022;12.114;2022-08-20T01:36:39;16.40;99.90
18794;DHT22;29610;49.022;12.114;2022-08-20T01:39:14;16.40;99.90
18794;DHT22;29610;49.022;12.114;2022-08-20T01:41:54;16.40;99.90
18794;DHT22;29610;49.022;12.114;2022-08-20T01:44:31;16.40;99.90
18794;DHT22;29610;49.022;12.114;2022-08-20T01:47:10;16.40;99.90
18794;DHT22;29610;49.022;12.114;2022-08-20T01:49:43;16.40;99.90
18794;DHT22;29610;49.022;12.114;2022-08-20T01:52:23;16.30;99.90
18794;DHT22;29610;49.022;12.114;2022-08-20T01:54:58;16.30;99.90
18794;DHT22;29610;49.022;12.114;2022-08-20T01:57:28;16.30;99.90
18794;DHT22;29610;49.022;12.114;2022-08-20T01:59:56;16.30;99.90
18794;DHT22;29610;49.022;12.114;2022-08-20T02:02:25;16.30;99.90
18794;DHT22;29610;49.022;12.114;2022-08-20T02:04:54;16.30;99.90
18794;DHT22;29610;49.022;12.114;2022-08-20T02:07:24;16.30;99.90
18794;DHT22;29610;49.022;12.114;2022-08-20T02:09:53;16.30;99.90
18794;DHT22;29610;49.022;12.114;2022-08-20T02:12:21;16.30;99.90
18794;DHT22;29610;49.022;12.114;2022-08-20T02:14:53;16.30;99.90
18794;DHT22;29610;49.022;12.114;2022-08-20T02:17:25;16.30;99.90
18794;DHT22;29610;49.022;12.114;2022-08-20T02:19:56;16.40;99.90
18794;DHT22;29610;49.022;12.114;2022-08-20T02:22:35;16.40;99.90
18794;DHT22;29610;49.022;12.114;2022-08-20T02:25:12;17.60;99.90
18794;DHT22;29610;49.022;12.114;2022-08-20T02:27:44;16.40;99.90
18794;DHT22;29610;49.022;12.114;2022-08-20T02:30:18;16.50;99.90
18794;DHT22;29610;49.022;12.114;2022-08-20T02:32:54;16.40;99.90
18794;DHT22;29610;49.022;12.114;2022-08-20T02:35:24;16.50;99.90
18794;DHT22;29610;49.022;12.114;2022-08-20T02:37:53;16.50;99.90
18794;DHT22;29610;49.022;12.114;2022-08-20T02:40:25;16.50;99.90
18794;DHT22;29610;49.022;12.114;2022-08-20T02:42:57;16.50;99.90
18794;DHT22;29610;49.022;12.114;2022-08-20T02:45:28;16.60;99.90
18794;DHT22;29610;49.022;12.114;2022-08-20T02:48:03;16.50;99.90
18794;DHT22;29610;49.022;12.114;2022-08-20T02:50:32;16.50;99.90
18794;DHT22;29610;49.022;12.114;2022-08-20T02:53:00;16.50;99.90
18794;DHT22;29610;49.022;12.114;2022-08-20T02:55:29;16.60;99.90
18794;DHT22;29610;49.022;12.114;2022-08-20T02:57:58;16.60;99.90
18794;DHT22;29610;49.022;12.114;2022-08-20T03:00:30;16.60;99.90
18794;DHT22;29610;49.022;12.114;2022-08-20T03:03:05;16.60;99.90
18794;DHT22;29610;49.022;12.114;2022-08-20T03:05:34;16.70;99.90
18794;DHT22;29610;49.022;12.114;2022-08-20T03:08:06;16.60;99.90
18794;DHT22;29610;49.022;12.114;2022-08-20T03:10:38;16.60;99.90
18794;DHT22;29610;49.022;12.114;2022-08-20T03:13:08;16.60;99.90
18794;DHT22;29610;49.022;12.114;2022-08-20T03:15:42;16.70;99.90
18794;DHT22;29610;49.022;12.114;2022-08-20T03:18:12;16.60;99.90
18794;DHT22;29610;49.022;12.114;2022-08-20T03:20:42;16.70;99.90
18794;DHT22;29610;49.022;12.114;2022-08-20T03:23:14;16.60;99.90
18794;DHT22;29610;49.022;12.114;2022-08-20T03:25:45;16.70;99.90
18794;DHT22;29610;49.022;12.114;2022-08-20T03:28:15;16.70;99.90
18794;DHT22;29610;49.022;12.114;2022-08-20T03:30:46;16.70;99.90
18794;DHT22;29610;49.022;12.114;2022-08-20T03:33:15;16.60;99.90
18794;DHT22;29610;49.022;12.114;2022-08-20T03:35:43;16.60;99.90
18794;DHT22;29610;49.022;12.114;2022-08-20T03:38:13;16.60;99.90
18794;DHT22;29610;49.022;12.114;2022-08-20T03:40:47;16.60;99.90
18794;DHT22;29610;49.022;12.114;2022-08-20T03:43:17;16.60;99.90
18794;DHT22;29610;49.022;12.114;2022-08-20T03:45:47;16.60;99.90
18794;DHT22;29610;49.022;12.114;2022-08-20T03:48:19;16.60;99.90
18794;DHT22;29610;49.022;12.114;2022-08-20T03:50:49;16.60;99.90
18794;DHT22;29610;49.022;12.114;2022-08-20T03:53:18;16.60;99.90
18794;DHT22;29610;49.022;12.114;2022-08-20T03:55:48;16.60;99.90
18794;DHT22;29610;49.022;12.114;2022-08-20T03:58:25;16.70;99.90
18794;DHT22;29610;49.022;12.114;2022-08-20T04:01:06;16.70;99.90
18794;DHT22;29610;49.022;12.114;2022-08-20T04:03:55;16.60;99.90
18794;DHT22;29610;49.022;12.114;2022-08-20T04:06:24;16.60;99.90
18794;DHT22;29610;49.022;12.114;2022-08-20T04:08:53;16.60;99.90
18794;DHT22;29610;49.022;12.114;2022-08-20T04:11:22;16.60;99.90
18794;DHT22;29610;49.022;12.114;2022-08-20T04:13:50;16.60;99.90
18794;DHT22;29610;49.022;12.114;2022-08-20T04:16:21;16.60;99.90
18794;DHT22;29610;49.022;12.114;2022-08-20T04:18:50;16.60;99.90
18794;DHT22;29610;49.022;12.114;2022-08-20T04:21:28;16.70;99.90
18794;DHT22;29610;49.022;12.114;2022-08-20T04:23:59;16.70;99.90
18794;DHT22;29610;49.022;12.114;2022-08-20T04:26:29;16.70;99.90
18794;DHT22;29610;49.022;12.114;2022-08-20T04:28:58;16.60;99.90
18794;DHT22;29610;49.022;12.114;2022-08-20T04:31:28;16.60;99.90
18794;DHT22;29610;49.022;12.114;2022-08-20T04:34:00;16.60;99.90
18794;DHT22;29610;49.022;12.114;2022-08-20T04:36:29;16.60;99.90
18794;DHT22;29610;49.022;12.114;2022-08-20T04:38:58;16.60;99.90
18794;DHT22;29610;49.022;12.114;2022-08-20T04:41:26;16.60;99.90
18794;DHT22;29610;49.022;12.114;2022-08-20T04:43:55;16.70;99.90
18794;DHT22;29610;49.022;12.114;2022-08-20T04:46:26;16.70;99.90
18794;DHT22;29610;49.022;12.114;2022-08-20T04:48:58;16.70;99.90
18794;DHT22;29610;49.022;12.114;2022-08-20T04:51:29;16.70;99.90
18794;DHT22;29610;49.022;12.114;2022-08-20T04:53:59;16.70;99.90
18794;DHT22;29610;49.022;12.114;2022-08-20T04:56:31;16.80;99.90
18794;DHT22;29610;49.022;12.114;2022-08-20T04:59:04;16.80;99.90
18794;DHT22;29610;49.022;12.114;2022-08-20T05:01:35;16.80;99.90
18794;DHT22;29610;49.022;12.114;2022-08-20T05:04:04;16.80;99.90
18794;DHT22;29610;49.022;12.114;2022-08-20T05:06:32;16.90;99.90
18794;DHT22;29610;49.022;12.114;2022-08-20T05:09:01;16.90;99.90
18794;DHT22;29610;49.022;12.114;2022-08-20T05:11:29;17.00;99.90
18794;DHT22;29610;49.022;12.114;2022-08-20T05:14:04;17.10;99.90
18794;DHT22;29610;49.022;12.114;2022-08-20T05:16:37;17.10;99.90
18794;DHT22;29610;49.022;12.114;2022-08-20T05:19:08;17.20;99.90
18794;DHT22;29610;49.022;12.114;2022-08-20T05:21:39;17.20;99.90
18794;DHT22;29610;49.022;12.114;2022-08-20T05:24:07;17.20;99.90
18794;DHT22;29610;49.022;12.114;2022-08-20T05:26:38;17.20;99.90
18794;DHT22;29610;49.022;12.114;2022-08-20T05:29:07;17.20;99.90
18794;DHT22;29610;49.022;12.114;2022-08-20T05:31:37;17.20;99.90
18794;DHT22;29610;49.022;12.114;2022-08-20T05:34:07;17.30;99.90
18794;DHT22;29610;49.022;12.114;2022-08-20T05:36:40;17.40;99.90
18794;DHT22;29610;49.022;12.114;2022-08-20T05:39:10;17.40;99.90
18794;DHT22;29610;49.022;12.114;2022-08-20T05:41:40;17.40;99.90
18794;DHT22;29610;49.022;12.114;2022-08-20T05:44:09;17.50;99.90
18794;DHT22;29610;49.022;12.114;2022-08-20T05:46:42;17.50;99.90
18794;DHT22;29610;49.022;12.114;2022-08-20T05:49:14;17.60;99.90
18794;DHT22;29610;49.022;12.114;2022-08-20T05:51:45;17.70;99.90
18794;DHT22;29610;49.022;12.114;2022-08-20T05:54:14;17.90;99.90
18794;DHT22;29610;49.022;12.114;2022-08-20T05:56:43;18.10;99.90
18794;DHT22;29610;49.022;12.114;2022-08-20T05:59:11;18.20;99.90
18794;DHT22;29610;49.022;12.114;2022-08-20T06:01:42;18.30;99.90
18794;DHT22;29610;49.022;12.114;2022-08-20T06:04:11;18.40;99.90
18794;DHT22;29610;49.022;12.114;2022-08-20T06:06:51;18.50;99.90
18794;DHT22;29610;49.022;12.114;2022-08-20T06:09:23;18.60;99.90
18794;DHT22;29610;49.022;12.114;2022-08-20T06:11:59;18.60;99.90
18794;DHT22;29610;49.022;12.114;2022-08-20T06:14:29;18.70;99.90
18794;DHT22;29610;49.022;12.114;2022-08-20T06:17:04;18.70;99.90
18794;DHT22;29610;49.022;12.114;2022-08-20T06:19:34;18.80;99.90
18794;DHT22;29610;49.022;12.114;2022-08-20T06:22:05;18.70;99.90
18794;DHT22;29610;49.022;12.114;2022-08-20T06:24:51;18.70;99.90
18794;DHT22;29610;49.022;12.114;2022-08-20T06:27:20;18.70;99.90
18794;DHT22;29610;49.022;12.114;2022-08-20T06:29:50;18.70;99.90
18794;DHT22;29610;49.022;12.114;2022-08-20T06:32:21;18.70;99.90
18794;DHT22;29610;49.022;12.114;2022-08-20T06:34:59;18.70;99.90
18794;DHT22;29610;49.022;12.114;2022-08-20T06:37:29;18.70;99.90
18794;DHT22;29610;49.022;12.114;2022-08-20T06:40:00;18.70;99.90
18794;DHT22;29610;49.022;12.114;2022-08-20T06:42:32;18.70;99.90
18794;DHT22;29610;49.022;12.114;2022-08-20T06:45:00;18.70;99.90
18794;DHT22;29610;49.022;12.114;2022-08-20T06:47:33;18.80;99.90
18794;DHT22;29610;49.022;12.114;2022-08-20T06:50:02;18.80;99.90
18794;DHT22;29610;49.022;12.114;2022-08-20T06:52:34;18.80;99.90
18794;DHT22;29610;49.022;12.114;2022-08-20T06:55:19;18.70;99.90
18794;DHT22;29610;49.022;12.114;2022-08-20T06:57:56;18.70;99.90
18794;DHT22;29610;49.022;12.114;2022-08-20T07:00:26;18.70;99.90
18794;DHT22;29610;49.022;12.114;2022-08-20T07:02:59;18.80;99.90
18794;DHT22;29610;49.022;12.114;2022-08-20T07:05:28;18.80;99.90
18794;DHT22;29610;49.022;12.114;2022-08-20T07:07:58;18.90;99.90
18794;DHT22;29610;49.022;12.114;2022-08-20T07:10:28;19.10;99.90
18794;DHT22;29610;49.022;12.114;2022-08-20T07:12:57;19.20;99.90
18794;DHT22;29610;49.022;12.114;2022-08-20T07:15:26;19.20;99.90
18794;DHT22;29610;49.022;12.114;2022-08-20T07:17:58;19.20;99.90
18794;DHT22;29610;49.022;12.114;2022-08-20T07:20:31;19.30;99.90
18794;DHT22;29610;49.022;12.114;2022-08-20T07:23:01;19.40;99.90
18794;DHT22;29610;49.022;12.114;2022-08-20T07:25:30;19.40;99.90
18794;DHT22;29610;49.022;12.114;2022-08-20T07:28:01;19.50;99.90
18794;DHT22;29610;49.022;12.114;2022-08-20T07:30:32;19.60;99.90
18794;DHT22;29610;49.022;12.114;2022-08-20T07:33:26;19.50;99.90
18794;DHT22;29610;49.022;12.114;2022-08-20T07:35:56;19.50;99.90
18794;DHT22;29610;49.022;12.114;2022-08-20T07:38:27;19.40;99.90
18794;DHT22;29610;49.022;12.114;2022-08-20T07:40:58;19.40;99.90
18794;DHT22;29610;49.022;12.114;2022-08-20T07:43:31;19.40;99.90
18794;DHT22;29610;49.022;12.114;2022-08-20T07:46:05;19.40;99.90
18794;DHT22;29610;49.022;12.114;2022-08-20T07:48:38;19.40;99.90
18794;DHT22;29610;49.022;12.114;2022-08-20T07:51:09;19.50;99.90
18794;DHT22;29610;49.022;12.114;2022-08-20T07:53:39;19.30;99.90
18794;DHT22;29610;49.022;12.114;2022-08-20T07:56:10;19.30;99.90
18794;DHT22;29610;49.022;12.114;2022-08-20T07:58:42;19.30;99.90
18794;DHT22;29610;49.022;12.114;2022-08-20T08:01:16;19.30;99.90
18794;DHT22;29610;49.022;12.114;2022-08-20T08:03:48;19.40;99.90
18794;DHT22;29610;49.022;12.114;2022-08-20T08:06:17;19.50;99.90
18794;DHT22;29610;49.022;12.114;2022-08-20T08:08:58;19.50;99.90
18794;DHT22;29610;49.022;12.114;2022-08-20T08:11:31;19.50;99.90
18794;DHT22;29610;49.022;12.114;2022-08-20T08:14:02;19.50;99.90
18794;DHT22;29610;49.022;12.114;2022-08-20T08:16:34;19.40;99.90
18794;DHT22;29610;49.022;12.114;2022-08-20T08:19:08;19.50;99.90
18794;DHT22;29610;49.022;12.114;2022-08-20T08:21:40;19.50;99.90
18794;DHT22;29610;49.022;12.114;2022-08-20T08:24:10;19.50;99.90
18794;DHT22;29610;49.022;12.114;2022-08-20T08:26:46;19.60;99.90
18794;DHT22;29610;49.022;12.114;2022-08-20T08:29:16;19.50;99.90
18794;DHT22;29610;49.022;12.114;2022-08-20T08:31:45;19.60;99.90
18794;DHT22;29610;49.022;12.114;2022-08-20T08:34:15;19.70;99.90
18794;DHT22;29610;49.022;12.114;2022-08-20T08:36:43;19.80;99.90
18794;DHT22;29610;49.022;12.114;2022-08-20T08:39:13;19.90;99.90
18794;DHT22;29610;49.022;12.114;2022-08-20T08:41:44;20.00;99.90
18794;DHT22;29610;49.022;12.114;2022-08-20T08:44:18;20.10;99.90
18794;DHT22;29610;49.022;12.114;2022-08-20T08:46:52;20.00;99.90
18794;DHT22;29610;49.022;12.114;2022-08-20T08:49:26;20.00;99.90
18794;DHT22;29610;49.022;12.114;2022-08-20T08:52:08;20.10;99.90
18794;DHT22;29610;49.022;12.114;2022-08-20T08:54:45;20.30;99.90
18794;DHT22;29610;49.022;12.114;2022-08-20T08:57:16;20.40;99.90
18794;DHT22;29610;49.022;12.114;2022-08-20T08:59:47;20.50;99.90
18794;DHT22;29610;49.022;12.114;2022-08-20T09:02:32;20.70;99.90
18794;DHT22;29610;49.022;12.114;2022-08-20T09:05:11;20.60;99.90
18794;DHT22;29610;49.022;12.114;2022-08-20T09:07:46;20.60;99.90
18794;DHT22;29610;49.022;12.114;2022-08-20T09:10:20;20.50;99.90
18794;DHT22;29610;49.022;12.114;2022-08-20T09:12:49;20.50;99.90
18794;DHT22;29610;49.022;12.114;2022-08-20T09:15:18;20.50;99.90
18794;DHT22;29610;49.022;12.114;2022-08-20T09:17:48;20.40;99.90
18794;DHT22;29610;49.022;12.114;2022-08-20T09:20:18;20.40;99.90
18794;DHT22;29610;49.022;12.114;2022-08-20T09:22:53;20.20;99.90
18794;DHT22;29610;49.022;12.114;2022-08-20T09:25:22;20.20;99.90
18794;DHT22;29610;49.022;12.114;2022-08-20T09:27:51;20.20;99.90
18794;DHT22;29610;49.022;12.114;2022-08-20T09:30:20;20.10;99.90
18794;DHT22;29610;49.022;12.114;2022-08-20T09:32:49;20.20;99.90
18794;DHT22;29610;49.022;12.114;2022-08-20T09:35:19;20.10;99.90
18794;DHT22;29610;49.022;12.114;2022-08-20T09:37:47;20.10;99.90
18794;DHT22;29610;49.022;12.114;2022-08-20T09:40:18;20.10;99.90
18794;DHT22;29610;49.022;12.114;2022-08-20T09:42:48;20.00;99.90
18794;DHT22;29610;49.022;12.114;2022-08-20T09:45:17;19.90;99.90
18794;DHT22;29610;49.022;12.114;2022-08-20T09:47:47;19.80;99.90
18794;DHT22;29610;49.022;12.114;2022-08-20T09:50:24;19.70;99.90
18794;DHT22;29610;49.022;12.114;2022-08-20T09:52:57;19.70;99.90
18794;DHT22;29610;49.022;12.114;2022-08-20T09:55:32;19.60;99.90
18794;DHT22;29610;49.022;12.114;2022-08-20T09:58:06;19.60;99.90
18794;DHT22;29610;49.022;12.114;2022-08-20T10:00:40;19.50;99.90
18794;DHT22;29610;49.022;12.114;2022-08-20T10:03:09;19.50;99.90
18794;DHT22;29610;49.022;12.114;2022-08-20T10:05:39;19.50;99.90
18794;DHT22;29610;49.022;12.114;2022-08-20T10:08:09;19.40;99.90
18794;DHT22;29610;49.022;12.114;2022-08-20T10:10:39;19.40;99.90
18794;DHT22;29610;49.022;12.114;2022-08-20T10:13:07;19.30;99.90
18794;DHT22;29610;49.022;12.114;2022-08-20T10:15:41;19.30;99.90
18794;DHT22;29610;49.022;12.114;2022-08-20T10:18:10;19.30;99.90
18794;DHT22;29610;49.022;12.114;2022-08-20T10:20:40;19.30;99.90
18794;DHT22;29610;49.022;12.114;2022-08-20T10:23:09;19.30;99.90
18794;DHT22;29610;49.022;12.114;2022-08-20T10:25:38;19.30;99.90
18794;DHT22;29610;49.022;12.114;2022-08-20T10:28:08;19.30;99.90
18794;DHT22;29610;49.022;12.114;2022-08-20T10:30:37;19.30;99.90
18794;DHT22;29610;49.022;12.114;2022-08-20T10:33:06;19.20;99.90
18794;DHT22;29610;49.022;12.114;2022-08-20T10:35:34;19.30;99.90
18794;DHT22;29610;49.022;12.114;2022-08-20T10:38:06;19.30;99.90
18794;DHT22;29610;49.022;12.114;2022-08-20T10:40:35;19.30;99.90
18794;DHT22;29610;49.022;12.114;2022-08-20T10:43:03;19.30;99.90
18794;DHT22;29610;49.022;12.114;2022-08-20T10:45:32;19.30;99.90
18794;DHT22;29610;49.022;12.114;2022-08-20T10:48:02;19.30;99.90
18794;DHT22;29610;49.022;12.114;2022-08-20T10:50:35;19.30;99.90
18794;DHT22;29610;49.022;12.114;2022-08-20T10:53:04;19.30;99.90
18794;DHT22;29610;49.022;12.114;2022-08-20T10:55:33;19.40;99.90
18794;DHT22;29610;49.022;12.114;2022-08-20T10:58:04;19.50;99.90
18794;DHT22;29610;49.022;12.114;2022-08-20T11:00:37;19.50;99.90
18794;DHT22;29610;49.022;12.114;2022-08-20T11:03:06;19.50;99.90
18794;DHT22;29610;49.022;12.114;2022-08-20T11:05:34;19.60;99.90
18794;DHT22;29610;49.022;12.114;2022-08-20T11:08:04;19.60;99.90
18794;DHT22;29610;49.022;12.114;2022-08-20T11:10:35;19.70;99.90
18794;DHT22;29610;49.022;12.114;2022-08-20T11:13:05;19.80;99.90
18794;DHT22;29610;49.022;12.114;2022-08-20T11:15:39;19.90;99.90
18794;DHT22;29610;49.022;12.114;2022-08-20T11:18:09;20.10;99.90
18794;DHT22;29610;49.022;12.114;2022-08-20T11:20:39;19.90;99.90
18794;DHT22;29610;49.022;12.114;2022-08-20T11:23:09;20.00;99.90
18794;DHT22;29610;49.022;12.114;2022-08-20T11:25:38;20.10;99.90
18794;DHT22;29610;49.022;12.114;2022-08-20T11:28:06;20.20;99.90
18794;DHT22;29610;49.022;12.114;2022-08-20T11:30:36;20.30;99.90
18794;DHT22;29610;49.022;12.114;2022-08-20T11:33:05;20.40;99.90
18794;DHT22;29610;49.022;12.114;2022-08-20T11:35:35;20.40;99.90
18794;DHT22;29610;49.022;12.114;2022-08-20T11:38:16;20.40;99.90
18794;DHT22;29610;49.022;12.114;2022-08-20T11:40:45;20.60;99.90
18794;DHT22;29610;49.022;12.114;2022-08-20T11:43:14;20.70;99.90
18794;DHT22;29610;49.022;12.114;2022-08-20T11:45:46;20.80;99.90
18794;DHT22;29610;49.022;12.114;2022-08-20T11:48:17;20.70;99.90
18794;DHT22;29610;49.022;12.114;2022-08-20T11:50:46;20.80;99.90
18794;DHT22;29610;49.022;12.114;2022-08-20T11:53:17;20.80;99.90
18794;DHT22;29610;49.022;12.114;2022-08-20T11:55:48;20.90;99.90
18794;DHT22;29610;49.022;12.114;2022-08-20T11:58:16;21.00;99.90
18794;DHT22;29610;49.022;12.114;2022-08-20T12:00:45;21.00;99.90
18794;DHT22;29610;49.022;12.114;2022-08-20T12:03:14;21.00;99.90
18794;DHT22;29610;49.022;12.114;2022-08-20T12:05:45;21.10;99.90
18794;DHT22;29610;49.022;12.114;2022-08-20T12:08:15;20.90;99.90
18794;DHT22;29610;49.022;12.114;2022-08-20T12:10:54;20.90;99.90
18794;DHT22;29610;49.022;12.114;2022-08-20T12:13:24;21.10;99.90
18794;DHT22;29610;49.022;12.114;2022-08-20T12:16:14;21.30;99.90
18794;DHT22;29610;49.022;12.114;2022-08-20T12:18:43;21.50;99.90
18794;DHT22;29610;49.022;12.114;2022-08-20T12:21:12;21.60;99.90
18794;DHT22;29610;49.022;12.114;2022-08-20T12:23:42;21.80;99.90
18794;DHT22;29610;49.022;12.114;2022-08-20T12:26:11;21.90;99.90
18794;DHT22;29610;49.022;12.114;2022-08-20T12:28:39;21.90;99.90
18794;DHT22;29610;49.022;12.114;2022-08-20T12:31:08;21.90;99.90
18794;DHT22;29610;49.022;12.114;2022-08-20T12:33:37;21.80;99.90
18794;DHT22;29610;49.022;12.114;2022-08-20T12:36:05;21.90;99.90
18794;DHT22;29610;49.022;12.114;2022-08-20T12:38:34;21.90;99.90
18794;DHT22;29610;49.022;12.114;2022-08-20T12:41:07;21.90;99.90
18794;DHT22;29610;49.022;12.114;2022-08-20T12:43:36;22.00;99.90
18794;DHT22;29610;49.022;12.114;2022-08-20T12:46:04;22.10;99.90
18794;DHT22;29610;49.022;12.114;2022-08-20T12:48:33;22.20;99.90
18794;DHT22;29610;49.022;12.114;2022-08-20T12:51:05;22.20;99.90
18794;DHT22;29610;49.022;12.114;2022-08-20T12:53:33;22.00;99.90
18794;DHT22;29610;49.022;12.114;2022-08-20T12:56:06;21.80;99.90
18794;DHT22;29610;49.022;12.114;2022-08-20T12:58:35;21.80;99.90
18794;DHT22;29610;49.022;12.114;2022-08-20T13:01:04;21.90;99.90
18794;DHT22;29610;49.022;12.114;2022-08-20T13:03:32;21.80;99.90
18794;DHT22;29610;49.022;12.114;2022-08-20T13:06:11;21.80;99.90
18794;DHT22;29610;49.022;12.114;2022-08-20T13:08:39;21.70;99.90
18794;DHT22;29610;49.022;12.114;2022-08-20T13:11:09;21.70;99.90
18794;DHT22;29610;49.022;12.114;2022-08-20T13:13:38;21.70;99.90
18794;DHT22;29610;49.022;12.114;2022-08-20T13:16:06;21.80;99.90
18794;DHT22;29610;49.022;12.114;2022-08-20T13:18:35;21.90;99.90
18794;DHT22;29610;49.022;12.114;2022-08-20T13:21:03;22.00;99.90
18794;DHT22;29610;49.022;12.114;2022-08-20T13:23:32;22.10;99.90
18794;DHT22;29610;49.022;12.114;2022-08-20T13:26:00;22.10;99.90
18794;DHT22;29610;49.022;12.114;2022-08-20T13:28:34;22.00;99.90
18794;DHT22;29610;49.022;12.114;2022-08-20T13:31:06;22.10;99.90
18794;DHT22;29610;49.022;12.114;2022-08-20T13:33:34;22.00;99.90
18794;DHT22;29610;49.022;12.114;2022-08-20T13:36:06;21.90;99.90
18794;DHT22;29610;49.022;12.114;2022-08-20T13:38:35;21.90;99.90
18794;DHT22;29610;49.022;12.114;2022-08-20T13:41:04;21.90;99.90
18794;DHT22;29610;49.022;12.114;2022-08-20T13:43:34;22.00;99.90
18794;DHT22;29610;49.022;12.114;2022-08-20T13:46:02;22.00;99.90
18794;DHT22;29610;49.022;12.114;2022-08-20T13:48:32;22.00;99.90
18794;DHT22;29610;49.022;12.114;2022-08-20T13:51:04;22.00;99.90
18794;DHT22;29610;49.022;12.114;2022-08-20T13:53:33;22.10;99.90
18794;DHT22;29610;49.022;12.114;2022-08-20T13:56:04;22.20;99.90
18794;DHT22;29610;49.022;12.114;2022-08-20T13:58:35;22.20;99.90
18794;DHT22;29610;49.022;12.114;2022-08-20T14:01:03;22.30;99.90
18794;DHT22;29610;49.022;12.114;2022-08-20T14:03:32;22.30;99.90
18794;DHT22;29610;49.022;12.114;2022-08-20T14:06:05;22.40;99.90
18794;DHT22;29610;49.022;12.114;2022-08-20T14:08:35;22.50;99.90
18794;DHT22;29610;49.022;12.114;2022-08-20T14:11:04;22.50;99.90
18794;DHT22;29610;49.022;12.114;2022-08-20T14:13:40;22.60;99.90
18794;DHT22;29610;49.022;12.114;2022-08-20T14:16:08;22.70;99.90
18794;DHT22;29610;49.022;12.114;2022-08-20T14:18:53;22.70;99.90
18794;DHT22;29610;49.022;12.114;2022-08-20T14:21:22;22.80;99.90
18794;DHT22;29610;49.022;12.114;2022-08-20T14:23:51;22.70;99.90
18794;DHT22;29610;49.022;12.114;2022-08-20T14:26:19;22.80;99.90
18794;DHT22;29610;49.022;12.114;2022-08-20T14:28:49;22.90;99.90
18794;DHT22;29610;49.022;12.114;2022-08-20T14:31:18;22.90;99.90
18794;DHT22;29610;49.022;12.114;2022-08-20T14:33:46;22.90;99.90
18794;DHT22;29610;49.022;12.114;2022-08-20T14:36:17;23.00;99.90
18794;DHT22;29610;49.022;12.114;2022-08-20T14:38:45;23.10;99.90
18794;DHT22;29610;49.022;12.114;2022-08-20T14:41:14;23.00;99.90
18794;DHT22;29610;49.022;12.114;2022-08-20T14:43:42;23.10;99.90
18794;DHT22;29610;49.022;12.114;2022-08-20T14:46:12;23.00;99.90
18794;DHT22;29610;49.022;12.114;2022-08-20T14:48:41;22.90;99.90
18794;DHT22;29610;49.022;12.114;2022-08-20T14:51:09;22.80;99.90
18794;DHT22;29610;49.022;12.114;2022-08-20T14:53:38;22.90;99.90
18794;DHT22;29610;49.022;12.114;2022-08-20T14:56:06;22.80;99.90
18794;DHT22;29610;49.022;12.114;2022-08-20T14:58:35;22.70;99.90
18794;DHT22;29610;49.022;12.114;2022-08-20T15:01:04;22.70;99.90
18794;DHT22;29610;49.022;12.114;2022-08-20T15:03:34;22.60;99.90
18794;DHT22;29610;49.022;12.114;2022-08-20T15:06:04;22.40;99.90
18794;DHT22;29610;49.022;12.114;2022-08-20T15:08:48;22.40;99.90
18794;DHT22;29610;49.022;12.114;2022-08-20T15:11:16;22.30;99.90
18794;DHT22;29610;49.022;12.114;2022-08-20T15:13:45;22.30;99.90
18794;DHT22;29610;49.022;12.114;2022-08-20T15:16:13;22.30;99.90
18794;DHT22;29610;49.022;12.114;2022-08-20T15:18:43;22.30;99.90
18794;DHT22;29610;49.022;12.114;2022-08-20T15:21:11;22.30;99.90
18794;DHT22;29610;49.022;12.114;2022-08-20T15:23:44;22.30;99.90
18794;DHT22;29610;49.022;12.114;2022-08-20T15:26:12;22.20;99.90
18794;DHT22;29610;49.022;12.114;2022-08-20T15:28:40;22.10;99.90
18794;DHT22;29610;49.022;12.114;2022-08-20T15:31:10;22.00;99.90
18794;DHT22;29610;49.022;12.114;2022-08-20T15:33:40;21.90;99.90
18794;DHT22;29610;49.022;12.114;2022-08-20T15:36:10;21.80;99.90
18794;DHT22;29610;49.022;12.114;2022-08-20T15:38:39;21.90;99.90
18794;DHT22;29610;49.022;12.114;2022-08-20T15:41:08;21.80;99.90